Time;durP1;ratioP1;P1;durP2;ratioP2;P2;SDS_P1;SDS_P2;PMS_P1;PMS_P2;Temp;Humidity;BMP_temperature;BMP_pressure;BME280_temperature;BME280_humidity;BME280_pressure;Samples;Min_cycle;Max_cycle;Signal;HPM_P1;HPM_P2
2021/12/16 00:34:01;;;;;;;19.90;13.50;;;9.20;99.70;;;;;;20917451;28;20211;-72
2021/12/16 00:44:47;;;;;;;20.80;13.57;;;9.20;99.50;;;;;;20914914;28;20657;-74
2021/12/16 00:54:29;;;;;;;23.07;13.50;;;9.00;99.20;;;;;;20914995;28;20210;-73
2021/12/16 01:35:41;;;;;;;23.40;14.43;;;9.00;99.70;;;;;;20912807;28;20208;-75
2021/12/16 01:56:03;;;;;;;21.90;15.30;;;9.10;99.40;;;;;;20912254;28;20204;-77
2021/12/16 02:37:03;;;;;;;24.10;14.33;;;9.10;99.20;;;;;;20910662;28;20721;-79
2021/12/16 02:57:33;;;;;;;23.17;15.03;;;9.10;99.50;;;;;;20924869;28;20216;-73
2021/12/16 03:07:35;;;;;;;24.53;15.40;;;9.10;99.10;;;;;;20927650;28;20286;-75
2021/12/16 03:17:56;;;;;;;24.73;15.77;;;9.10;99.40;;;;;;20924483;28;20211;-74
2021/12/16 03:38:19;;;;;;;22.83;14.87;;;9.20;99.30;;;;;;20921611;28;20603;-75
2021/12/16 03:48:29;;;;;;;23.40;15.63;;;9.20;99.50;;;;;;20921556;28;20248;-79
2021/12/16 03:58:31;;;;;;;23.60;14.83;;;9.10;99.10;;;;;;20920290;28;20618;-80
2021/12/16 04:08:33;;;;;;;23.57;15.17;;;9.10;99.20;;;;;;20919698;28;20643;-72
2021/12/16 04:18:35;;;;;;;22.00;14.33;;;9.20;99.50;;;;;;20920108;28;20261;-72
2021/12/16 04:28:42;;;;;;;24.53;15.07;;;9.20;99.40;;;;;;20918188;28;20642;-73
2021/12/16 04:38:46;;;;;;;21.90;14.07;;;9.20;99.00;;;;;;20916856;28;20251;-72
2021/12/16 04:48:51;;;;;;;21.60;14.97;;;9.20;99.30;;;;;;20916481;28;20239;-72
2021/12/16 04:58:55;;;;;;;21.17;13.90;;;9.10;99.10;;;;;;20915166;28;20302;-72
2021/12/16 05:08:58;;;;;;;21.77;14.60;;;8.90;99.10;;;;;;20913840;28;20269;-71
2021/12/16 05:19:00;;;;;;;23.90;14.97;;;9.00;99.10;;;;;;20914628;28;20214;-71
2021/12/16 05:29:03;;;;;;;21.23;14.40;;;9.00;98.90;;;;;;20913303;28;20572;-74
2021/12/16 05:39:06;;;;;;;24.77;15.37;;;9.00;98.70;;;;;;20911964;28;20289;-72
2021/12/16 05:49:10;;;;;;;24.40;15.07;;;9.00;99.00;;;;;;20912334;28;20281;-72
2021/12/16 05:59:13;;;;;;;27.13;14.97;;;9.10;99.00;;;;;;20911784;28;20663;-72
2021/12/16 06:09:15;;;;;;;20.77;14.27;;;9.10;98.70;;;;;;20910783;28;20235;-72
2021/12/16 06:29:41;;;;;;;21.00;14.43;;;8.90;98.50;;;;;;20928685;28;20235;-72
2021/12/16 06:39:43;;;;;;;21.37;14.10;;;9.00;98.60;;;;;;20942692;28;20709;-72
2021/12/16 06:49:47;;;;;;;23.37;15.17;;;9.00;98.80;;;;;;20927474;28;20234;-76
2021/12/16 07:00:13;;;;;;;25.53;14.50;;;9.00;98.60;;;;;;20923905;28;20200;-75
2021/12/16 07:10:16;;;;;;;29.00;15.17;;;9.00;98.50;;;;;;20923865;28;20200;-77
2021/12/16 07:20:23;;;;;;;23.53;15.73;;;9.00;98.70;;;;;;20922957;28;20232;-78
2021/12/16 07:30:25;;;;;;;24.77;15.13;;;9.00;98.40;;;;;;20920906;28;20209;-76
2021/12/16 07:40:29;;;;;;;21.90;15.07;;;9.00;98.60;;;;;;20920076;28;20721;-78
2021/12/16 07:50:31;;;;;;;24.17;14.90;;;9.00;98.60;;;;;;20919800;28;20219;-79
2021/12/16 08:00:34;;;;;;;25.63;15.87;;;9.00;98.20;;;;;;20919827;28;20227;-73
2021/12/16 08:10:37;;;;;;;26.17;15.53;;;8.90;98.10;;;;;;20918661;28;20211;-73
2021/12/16 08:20:40;;;;;;;23.90;15.60;;;9.00;98.50;;;;;;20915995;28;20281;-75
2021/12/16 08:30:48;;;;;;;25.87;16.00;;;9.00;98.10;;;;;;20917577;28;20262;-72
2021/12/16 08:40:53;;;;;;;22.70;15.00;;;9.10;98.00;;;;;;20914847;28;20239;-74
2021/12/16 08:50:56;;;;;;;27.47;16.37;;;9.20;98.20;;;;;;20913909;28;20222;-74
2021/12/16 09:01:04;;;;;;;23.60;15.07;;;9.30;98.50;;;;;;20915269;28;20263;-78
2021/12/16 09:11:08;;;;;;;22.70;15.67;;;9.40;98.30;;;;;;20913884;28;20261;-76
2021/12/16 09:21:15;;;;;;;26.30;15.80;;;9.40;98.00;;;;;;20912900;28;20235;-75
2021/12/16 09:31:21;;;;;;;26.17;14.80;;;9.30;97.80;;;;;;20912306;28;20216;-75
2021/12/16 09:41:23;;;;;;;23.03;14.73;;;9.30;97.80;;;;;;20911842;28;20305;-78
2021/12/16 09:51:30;;;;;;;20.10;14.13;;;9.60;97.80;;;;;;20910799;28;20214;-72
2021/12/16 10:01:33;;;;;;;22.10;15.30;;;9.60;98.10;;;;;;20911340;28;20232;-72
2021/12/16 10:11:38;;;;;;;21.37;14.43;;;9.70;97.60;;;;;;20910884;28;20287;-76
2021/12/16 10:21:42;;;;;;;24.63;14.37;;;9.90;97.50;;;;;;20911666;28;20232;-72
2021/12/16 10:31:44;;;;;;;21.80;13.30;;;9.80;97.70;;;;;;20910464;28;20205;-71
2021/12/16 10:41:52;;;;;;;23.27;14.20;;;9.90;97.10;;;;;;20909689;28;20239;-73
2021/12/16 10:52:01;;;;;;;19.23;12.93;;;10.00;96.90;;;;;;20909767;28;20205;-73
2021/12/16 11:02:28;;;;;;;18.23;12.50;;;10.10;96.70;;;;;;20909591;28;20636;-75
2021/12/16 11:12:58;;;;;;;17.20;11.30;;;10.30;96.60;;;;;;20924244;28;20656;-71
2021/12/16 11:23:05;;;;;;;16.00;11.40;;;10.50;96.40;;;;;;20922821;28;20290;-72
2021/12/16 11:33:16;;;;;;;16.27;11.60;;;10.90;96.10;;;;;;20922283;28;20257;-75
2021/12/16 11:43:30;;;;;;;15.50;10.67;;;11.30;95.80;;;;;;20920359;28;20286;-73
2021/12/16 11:53:45;;;;;;;16.47;10.77;;;11.40;94.90;;;;;;20920496;28;20642;-75
2021/12/16 12:03:47;;;;;;;19.30;11.43;;;11.40;95.10;;;;;;20919747;28;20232;-72
2021/12/16 12:13:56;;;;;;;18.23;10.67;;;11.40;94.70;;;;;;20918431;28;20258;-76
2021/12/16 12:24:15;;;;;;;17.33;10.73;;;11.20;94.40;;;;;;20917675;28;20240;-75
2021/12/16 12:34:17;;;;;;;15.87;10.83;;;11.00;94.40;;;;;;20917015;28;20214;-77
2021/12/16 12:44:19;;;;;;;15.57;10.20;;;11.00;94.80;;;;;;20915573;28;20259;-78
2021/12/16 12:54:29;;;;;;;15.87;10.53;;;11.10;94.90;;;;;;20915346;28;20209;-73
2021/12/16 13:04:47;;;;;;;16.13;10.07;;;11.10;95.20;;;;;;20914640;28;20234;-73
2021/12/16 13:14:51;;;;;;;18.60;11.47;;;11.10;94.80;;;;;;20914726;28;20211;-71
2021/12/16 13:25:26;;;;;;;23.73;11.10;;;11.00;94.60;;;;;;20912698;28;20236;-74
2021/12/16 13:35:33;;;;;;;16.00;9.77;;;11.00;94.60;;;;;;20912521;28;20235;-73
2021/12/16 13:45:49;;;;;;;15.83;9.80;;;11.00;94.90;;;;;;20913441;28;20240;-71
2021/12/16 14:38:40;;;;;;;16.20;9.70;;;10.90;95.10;;;;;;20982273;28;20217;-75
2021/12/16 14:48:38;;;;;;;20.30;9.70;;;10.90;94.80;;;;;;20981630;28;20596;-76
2021/12/16 14:58:42;;;;;;;13.20;9.00;;;10.90;95.20;;;;;;20980680;28;20205;-79
2021/12/16 15:49:51;;;;;;;16.30;10.53;;;10.70;95.90;;;;;;20921292;28;20690;-66
2021/12/16 16:00:11;;;;;;;17.17;10.13;;;10.60;95.90;;;;;;20921505;28;20231;-68
2021/12/16 16:10:15;;;;;;;35.57;20.87;;;10.50;95.70;;;;;;20919691;28;20291;-67
2021/12/16 16:20:17;;;;;;;17.70;11.73;;;10.50;96.10;;;;;;20918971;28;20212;-71
2021/12/16 16:30:20;;;;;;;19.07;12.37;;;10.50;96.20;;;;;;20918991;28;20235;-72
2021/12/16 16:40:22;;;;;;;25.80;13.37;;;10.50;96.00;;;;;;20916617;28;20205;-73
2021/12/16 16:50:24;;;;;;;21.33;12.50;;;10.50;96.30;;;;;;20917080;28;20236;-76
2021/12/16 17:00:38;;;;;;;22.47;13.70;;;10.40;96.30;;;;;;20916226;28;20575;-72
2021/12/16 17:10:48;;;;;;;23.97;13.67;;;10.40;96.50;;;;;;20914874;28;20241;-75
2021/12/16 17:20:52;;;;;;;26.17;13.73;;;10.50;96.30;;;;;;20914904;28;20205;-76
2021/12/16 17:30:56;;;;;;;27.70;15.07;;;10.50;96.60;;;;;;20914763;28;20724;-81
2021/12/16 17:41:09;;;;;;;30.23;17.43;;;10.40;96.60;;;;;;20913428;28;20213;-78
2021/12/16 17:51:18;;;;;;;30.43;16.03;;;10.40;96.90;;;;;;20913118;28;20263;-78
2021/12/16 18:01:29;;;;;;;32.30;16.67;;;10.40;97.10;;;;;;20912904;28;20206;-77
2021/12/16 18:11:36;;;;;;;28.77;16.23;;;10.30;96.90;;;;;;20911627;28;20719;-75
2021/12/16 18:21:41;;;;;;;21.53;13.90;;;10.20;97.40;;;;;;20911112;28;20244;-69
2021/12/16 18:31:45;;;;;;;26.97;16.47;;;10.30;97.80;;;;;;20909708;28;20288;-74
2021/12/16 18:42:10;;;;;;;30.90;17.00;;;10.30;97.60;;;;;;20909723;28;20219;-72
2021/12/16 19:02:18;;;;;;;28.80;17.83;;;10.30;97.50;;;;;;20915393;28;20262;-77
2021/12/16 19:12:26;;;;;;;29.27;18.70;;;10.30;97.50;;;;;;20877097;28;20240;-77
2021/12/16 19:22:28;;;;;;;27.27;15.93;;;10.20;97.70;;;;;;20859008;28;20205;-69
2021/12/16 19:32:30;;;;;;;28.37;16.97;;;10.20;97.90;;;;;;20841716;28;20259;-72
2021/12/16 19:42:32;;;;;;;25.60;17.03;;;10.20;98.40;;;;;;20849765;28;20205;-78
2021/12/16 19:52:34;;;;;;;27.83;17.27;;;10.20;97.90;;;;;;20836896;28;20248;-80
2021/12/16 20:02:36;;;;;;;26.97;18.23;;;10.20;98.20;;;;;;20832477;28;20210;-76
2021/12/16 20:12:39;;;;;;;29.13;18.70;;;10.20;98.30;;;;;;20866542;28;20604;-68
2021/12/16 20:22:41;;;;;;;31.03;19.37;;;10.10;98.40;;;;;;20912772;28;20306;-79
2021/12/16 20:32:52;;;;;;;35.13;19.20;;;10.00;98.60;;;;;;20912379;28;20268;-74
2021/12/16 20:42:59;;;;;;;34.17;20.60;;;9.90;99.20;;;;;;20911108;28;20611;-74
2021/12/16 20:53:04;;;;;;;35.33;21.00;;;9.90;99.50;;;;;;20910718;28;20248;-80
2021/12/16 21:03:07;;;;;;;33.03;23.95;;;10.00;99.10;;;;;;20906945;28;20436;-80
2021/12/16 21:13:10;;;;;;;35.43;21.77;;;10.50;99.00;;;;;;20872033;28;20268;-77
2021/12/16 21:23:12;;;;;;;36.63;23.00;;;10.10;98.90;;;;;;20830214;28;20552;-77
2021/12/16 21:33:19;;;;;;;31.90;20.93;;;10.10;99.20;;;;;;20831623;28;20243;-76
2021/12/16 21:43:22;;;;;;;35.07;20.93;;;10.00;99.20;;;;;;20831212;28;20266;-78
2021/12/16 21:53:25;;;;;;;31.47;20.30;;;10.10;99.10;;;;;;20830407;28;20408;-71
2021/12/16 22:03:31;;;;;;;26.77;16.60;;;10.10;99.30;;;;;;20830434;28;20221;-74
2021/12/16 22:13:33;;;;;;;23.80;16.23;;;10.10;99.00;;;;;;20829608;28;20237;-75
2021/12/16 22:23:35;;;;;;;22.67;15.63;;;10.10;99.30;;;;;;20829232;28;20255;-75
2021/12/16 22:33:38;;;;;;;32.10;19.10;;;10.10;99.20;;;;;;20834337;28;20685;-74
2021/12/16 22:43:42;;;;;;;28.03;18.93;;;10.10;99.30;;;;;;20845193;28;20622;-72
2021/12/16 22:53:44;;;;;;;30.03;18.13;;;10.10;99.20;;;;;;20842285;28;20236;-78
2021/12/16 23:03:53;;;;;;;32.27;17.70;;;10.10;99.50;;;;;;20842697;28;20213;-77
2021/12/16 23:13:57;;;;;;;25.83;16.97;;;10.10;99.50;;;;;;20842892;28;20336;-77
2021/12/16 23:24:02;;;;;;;29.80;17.27;;;10.10;99.50;;;;;;20841979;28;20205;-77
2021/12/16 23:34:05;;;;;;;29.13;16.20;;;10.10;99.20;;;;;;20841418;28;20829;-77
2021/12/16 23:54:24;;;;;;;21.73;14.60;;;10.00;99.40;;;;;;20839709;28;20310;-77
